createdAt,value
2023-03-21T00:01:52.930Z,10.14
2023-03-21T00:04:20.863Z,10.12
2023-03-21T00:06:48.893Z,10.12
2023-03-21T00:09:16.445Z,10.12
2023-03-21T00:11:44.866Z,10.12
2023-03-21T00:14:14.367Z,10.11
2023-03-21T00:16:45.808Z,10.08
2023-03-21T00:19:15.961Z,10.04
2023-03-21T00:21:59.545Z,10.03
2023-03-21T00:24:31.290Z,9.99
2023-03-21T00:27:10.681Z,9.97
2023-03-21T00:29:46.644Z,9.93
2023-03-21T00:32:14.301Z,9.92
2023-03-21T00:34:57.634Z,9.92
2023-03-21T00:37:30.037Z,9.92
2023-03-21T00:39:57.608Z,9.92
2023-03-21T00:42:25.185Z,9.92
2023-03-21T00:44:52.780Z,9.92
2023-03-21T00:47:20.513Z,9.88
2023-03-21T00:49:49.648Z,9.87
2023-03-21T00:52:27.546Z,9.90
2023-03-21T00:55:07.255Z,9.90
2023-03-21T00:57:39.310Z,9.90
2023-03-21T01:00:10.327Z,9.87
2023-03-21T01:02:38.501Z,9.83
2023-03-21T01:05:08.348Z,9.81
2023-03-21T01:07:35.961Z,9.80
2023-03-21T01:10:03.662Z,9.80
2023-03-21T01:12:31.280Z,9.76
2023-03-21T01:14:58.865Z,9.77
2023-03-21T01:17:26.462Z,9.74
2023-03-21T01:19:53.998Z,9.71
2023-03-21T01:22:22.923Z,9.67
2023-03-21T01:24:55.366Z,9.66
2023-03-21T01:27:24.478Z,9.66
2023-03-21T01:29:52.274Z,9.62
2023-03-21T01:32:19.956Z,9.59
2023-03-21T01:34:47.666Z,9.57
2023-03-21T01:37:17.733Z,9.53
2023-03-21T01:39:50.142Z,9.51
2023-03-21T01:42:18.046Z,9.50
2023-03-21T01:44:58.755Z,9.49
2023-03-21T01:47:34.906Z,9.50
2023-03-21T01:50:08.181Z,9.50
2023-03-21T01:52:46.604Z,9.51
2023-03-21T01:55:19.395Z,9.52
2023-03-21T01:58:05.822Z,9.52
2023-03-21T02:01:11.712Z,9.49
2023-03-21T02:03:51.300Z,9.50
2023-03-21T02:06:36.659Z,9.48
2023-03-21T02:09:19.845Z,9.49
2023-03-21T02:11:49.258Z,9.45
2023-03-21T02:14:29.028Z,9.39
2023-03-21T02:17:10.786Z,9.29
2023-03-21T02:20:11.278Z,9.29
2023-03-21T02:22:55.492Z,9.29
2023-03-21T02:25:46.584Z,9.29
2023-03-21T02:28:21.098Z,9.26
2023-03-21T02:31:14.424Z,9.23
2023-03-21T02:34:12.342Z,9.22
2023-03-21T02:37:01.084Z,9.23
2023-03-21T02:39:33.924Z,9.21
2023-03-21T02:42:08.104Z,9.20
2023-03-21T02:44:43.234Z,9.15
2023-03-21T02:47:14.407Z,9.13
2023-03-21T02:49:48.898Z,9.10
2023-03-21T02:52:37.478Z,9.09
2023-03-21T02:55:13.833Z,9.10
2023-03-21T02:57:50.976Z,9.11
2023-03-21T03:00:22.992Z,9.11
2023-03-21T03:03:02.730Z,9.07
2023-03-21T03:05:42.326Z,9.08
2023-03-21T03:08:32.442Z,9.07
2023-03-21T03:15:28.275Z,9.04
2023-03-21T03:18:02.840Z,9.04
2023-03-21T03:20:39.282Z,9.03
2023-03-21T03:23:20.601Z,9.03
2023-03-21T03:25:54.110Z,9.02
2023-03-21T03:28:27.152Z,8.99
2023-03-21T03:31:08.829Z,8.96
2023-03-21T03:33:47.709Z,8.96
2023-03-21T03:36:33.413Z,8.96
2023-03-21T03:39:10.297Z,8.96
2023-03-21T03:42:12.712Z,8.93
2023-03-21T03:44:38.325Z,8.93
2023-03-21T03:47:11.839Z,8.89
2023-03-21T03:49:47.411Z,8.90
2023-03-21T03:52:18.575Z,8.90
2023-03-21T03:54:52.935Z,8.89
2023-03-21T03:57:23.649Z,8.85
2023-03-21T03:59:51.464Z,8.83
2023-03-21T04:02:37.535Z,8.83
2023-03-21T04:05:06.386Z,8.82
2023-03-21T04:07:33.973Z,8.80
2023-03-21T04:10:03.769Z,8.80
2023-03-21T04:12:34.534Z,8.80
2023-03-21T04:15:16.309Z,8.76
2023-03-21T04:17:49.565Z,8.71
2023-03-21T04:20:26.692Z,8.68
2023-03-21T04:23:03.030Z,8.63
2023-03-21T04:25:34.946Z,8.61
2023-03-21T04:28:05.691Z,8.59
2023-03-21T04:30:43.369Z,8.56
2023-03-21T04:33:16.977Z,8.51
2023-03-21T04:35:56.058Z,8.48
2023-03-21T04:38:26.494Z,8.44
2023-03-21T04:40:55.660Z,8.38
2023-03-21T04:43:24.200Z,8.33
2023-03-21T04:45:52.649Z,8.31
2023-03-21T04:48:24.401Z,8.28
2023-03-21T04:50:53.276Z,8.27
2023-03-21T04:53:20.943Z,8.27
2023-03-21T04:55:52.431Z,8.25
2023-03-21T04:58:22.606Z,8.25
2023-03-21T05:00:52.944Z,8.21
2023-03-21T05:03:21.869Z,8.19
2023-03-21T05:05:49.927Z,8.16
2023-03-21T05:08:19.645Z,8.10
2023-03-21T05:10:47.454Z,8.09
2023-03-21T05:13:15.501Z,8.10
2023-03-21T05:15:44.432Z,8.07
2023-03-21T05:18:12.198Z,8.08
2023-03-21T05:20:57.987Z,8.05
2023-03-21T05:23:26.113Z,8.02
2023-03-21T05:25:53.763Z,7.99
2023-03-21T05:28:31.750Z,7.96
2023-03-21T05:31:02.403Z,7.95
2023-03-21T05:33:30.363Z,7.94
2023-03-21T05:35:59.008Z,7.96
2023-03-21T05:38:31.013Z,7.98
2023-03-21T05:40:59.291Z,7.97
2023-03-21T05:43:27.886Z,8.00
2023-03-21T05:45:55.994Z,7.92
2023-03-21T05:48:26.486Z,7.91
2023-03-21T05:51:09.219Z,7.89
2023-03-21T05:53:36.835Z,7.85
2023-03-21T05:56:04.780Z,7.84
2023-03-21T05:59:01.617Z,7.80
2023-03-21T06:01:31.853Z,7.78
2023-03-21T06:04:10.579Z,7.78
2023-03-21T06:06:38.134Z,7.75
2023-03-21T06:09:06.513Z,7.78
2023-03-21T06:11:36.952Z,7.74
2023-03-21T06:14:22.579Z,7.73
2023-03-21T06:17:16.484Z,7.75
2023-03-21T06:19:50.787Z,7.78
2023-03-21T06:22:23.518Z,7.81
2023-03-21T06:24:51.183Z,7.83
2023-03-21T06:27:19.154Z,7.90
2023-03-21T06:29:51.660Z,7.96
2023-03-21T06:32:19.571Z,8.01
2023-03-21T06:34:49.326Z,8.09
2023-03-21T06:37:18.741Z,8.11
2023-03-21T06:39:47.695Z,8.24
2023-03-21T06:42:15.850Z,8.35
2023-03-21T06:44:43.958Z,8.41
2023-03-21T06:47:15.633Z,8.49
2023-03-21T06:49:45.667Z,8.53
2023-03-21T06:52:14.214Z,8.55
2023-03-21T06:54:43.836Z,8.64
2023-03-21T06:57:13.558Z,8.76
2023-03-21T06:59:42.441Z,8.84
2023-03-21T07:02:14.513Z,8.91
2023-03-21T07:04:57.715Z,9.08
2023-03-21T07:07:29.748Z,9.20
2023-03-21T07:09:58.997Z,9.27
2023-03-21T07:12:33.970Z,9.35
2023-03-21T07:15:22.426Z,9.49
2023-03-21T07:17:50.351Z,9.58
2023-03-21T07:20:18.239Z,9.64
2023-03-21T07:22:45.894Z,9.68
2023-03-21T07:25:17.237Z,9.81
2023-03-21T07:27:44.882Z,9.93
2023-03-21T07:30:13.796Z,10.02
2023-03-21T07:32:41.368Z,10.27
2023-03-21T07:35:11.969Z,10.42
2023-03-21T07:37:39.790Z,10.56
2023-03-21T07:40:10.705Z,10.75
2023-03-21T07:42:42.632Z,10.97
2023-03-21T07:45:15.568Z,11.15
2023-03-21T07:47:43.603Z,11.33
2023-03-21T07:50:11.478Z,11.48
2023-03-21T07:52:39.179Z,11.56
2023-03-21T07:55:07.643Z,11.67
2023-03-21T07:57:35.499Z,11.80
2023-03-21T08:00:05.271Z,11.92
2023-03-21T08:02:41.146Z,11.94
2023-03-21T08:05:11.465Z,11.85
2023-03-21T08:07:39.075Z,11.96
2023-03-21T08:10:07.961Z,12.00
2023-03-21T08:12:35.540Z,12.13
2023-03-21T08:15:04.875Z,12.27
2023-03-21T08:17:32.430Z,12.43
2023-03-21T08:19:59.946Z,12.56
2023-03-21T08:22:27.519Z,12.67
2023-03-21T08:24:55.508Z,12.89
2023-03-21T08:27:23.063Z,12.99
2023-03-21T08:29:50.581Z,13.37
2023-03-21T08:32:20.515Z,13.57
2023-03-21T08:34:48.033Z,13.64
2023-03-21T08:37:15.600Z,13.89
2023-03-21T08:39:43.392Z,14.07
2023-03-21T08:42:10.926Z,14.25
2023-03-21T08:44:38.933Z,14.38
2023-03-21T08:47:08.105Z,14.30
2023-03-21T08:49:37.471Z,14.36
2023-03-21T08:52:06.517Z,14.52
2023-03-21T08:54:34.130Z,14.69
2023-03-21T08:57:01.664Z,14.75
2023-03-21T08:59:29.267Z,14.70
2023-03-21T09:01:56.866Z,14.71
2023-03-21T09:04:25.901Z,14.86
2023-03-21T09:06:56.180Z,15.00
2023-03-21T09:09:23.920Z,15.10
2023-03-21T09:11:52.578Z,15.22
2023-03-21T09:14:21.915Z,15.36
2023-03-21T09:16:54.197Z,15.46
2023-03-21T09:19:25.696Z,15.60
2023-03-21T09:21:55.770Z,15.71
2023-03-21T09:24:24.109Z,15.70
2023-03-21T09:26:51.765Z,15.66
2023-03-21T09:29:21.266Z,15.67
2023-03-21T09:31:49.658Z,15.75
2023-03-21T09:34:17.261Z,15.78
2023-03-21T09:36:48.251Z,15.88
2023-03-21T09:39:17.278Z,15.95
2023-03-21T09:42:06.313Z,15.89
2023-03-21T09:44:44.941Z,16.11
2023-03-21T09:47:20.700Z,16.25
2023-03-21T09:49:51.875Z,16.23
2023-03-21T09:52:24.961Z,16.12
2023-03-21T09:54:55.572Z,15.79
2023-03-21T09:57:32.951Z,15.67
2023-03-21T10:00:09.839Z,15.70
2023-03-21T10:02:45.473Z,15.80
2023-03-21T10:05:18.802Z,15.86
2023-03-21T10:07:48.740Z,15.82
2023-03-21T10:10:21.353Z,15.93
2023-03-21T10:12:53.713Z,16.05
2023-03-21T10:15:24.335Z,16.17
2023-03-21T10:17:59.264Z,16.15
2023-03-21T10:20:28.446Z,16.10
2023-03-21T10:22:59.678Z,16.08
2023-03-21T10:25:32.582Z,15.93
2023-03-21T10:28:02.750Z,15.78
2023-03-21T10:30:37.833Z,15.97
2023-03-21T10:33:09.500Z,15.89
2023-03-21T10:35:40.339Z,15.93
2023-03-21T10:38:15.599Z,15.84
2023-03-21T10:40:45.211Z,15.88
2023-03-21T10:43:35.328Z,16.00
2023-03-21T10:46:08.870Z,16.00
2023-03-21T10:48:38.171Z,15.67
2023-03-21T10:51:08.938Z,15.60
2023-03-21T10:53:39.771Z,15.65
2023-03-21T10:56:12.552Z,15.61
2023-03-21T10:58:43.636Z,15.71
2023-03-21T11:01:15.983Z,15.75
2023-03-21T11:03:46.792Z,15.69
2023-03-21T11:06:18.691Z,15.79
2023-03-21T11:08:49.854Z,15.84
2023-03-21T11:11:28.139Z,15.78
2023-03-21T11:14:01.014Z,15.66
2023-03-21T11:16:36.472Z,15.65
2023-03-21T11:19:13.376Z,15.85
2023-03-21T11:21:41.110Z,16.02
2023-03-21T11:24:15.020Z,16.21
2023-03-21T11:26:45.437Z,16.46
2023-03-21T11:29:27.943Z,16.47
2023-03-21T11:32:00.999Z,16.31
2023-03-21T11:34:33.897Z,16.17
2023-03-21T11:37:03.977Z,16.08
2023-03-21T11:39:34.664Z,16.12
2023-03-21T11:42:04.160Z,16.50
2023-03-21T11:44:34.326Z,16.94
2023-03-21T11:47:02.874Z,17.45
2023-03-21T11:49:31.570Z,18.05
2023-03-21T11:52:16.068Z,17.90
2023-03-21T11:54:59.642Z,18.40
2023-03-21T11:57:31.614Z,19.06
2023-03-21T12:00:13.435Z,18.41
2023-03-21T12:03:35.342Z,18.73
2023-03-21T12:06:18.460Z,18.98
2023-03-21T12:08:55.354Z,19.41
2023-03-21T12:11:30.392Z,19.84
2023-03-21T12:14:07.131Z,20.13
2023-03-21T12:16:44.194Z,20.45
2023-03-21T12:19:34.873Z,20.81
2023-03-21T12:22:08.981Z,20.85
2023-03-21T12:24:42.508Z,20.67
2023-03-21T12:27:18.736Z,21.01
2023-03-21T12:30:04.781Z,21.49
2023-03-21T12:33:00.279Z,21.79
2023-03-21T12:35:41.542Z,22.10
2023-03-21T12:38:17.033Z,22.05
2023-03-21T12:41:01.998Z,21.53
2023-03-21T12:43:37.437Z,21.37
2023-03-21T12:46:14.882Z,21.16
2023-03-21T12:48:47.329Z,21.35
2023-03-21T12:51:19.832Z,21.10
2023-03-21T12:53:55.595Z,21.44
2023-03-21T12:56:26.456Z,20.88
2023-03-21T12:58:59.724Z,20.51
2023-03-21T13:01:29.448Z,20.28
2023-03-21T13:04:11.509Z,19.84
2023-03-21T13:06:40.444Z,19.28
2023-03-21T13:09:17.943Z,19.11
2023-03-21T13:11:46.844Z,19.34
2023-03-21T13:14:21.088Z,18.71
2023-03-21T13:16:56.462Z,18.86
2023-03-21T13:19:31.888Z,19.58
2023-03-21T13:22:08.176Z,20.33
2023-03-21T13:24:43.621Z,20.75
2023-03-21T13:27:24.511Z,20.38
2023-03-21T13:29:53.685Z,20.08
2023-03-21T13:32:29.835Z,20.19
2023-03-21T13:35:00.232Z,20.90
2023-03-21T13:37:31.991Z,20.95
2023-03-21T13:40:09.315Z,21.19
2023-03-21T13:42:43.417Z,22.04
2023-03-21T13:45:13.114Z,22.57
2023-03-21T13:47:55.233Z,21.83
2023-03-21T13:50:45.712Z,21.77
2023-03-21T13:53:22.484Z,22.09
2023-03-21T13:56:18.505Z,21.29
2023-03-21T13:58:53.401Z,21.36
2023-03-21T14:01:31.695Z,21.22
2023-03-21T14:04:05.279Z,20.97
2023-03-21T14:06:37.087Z,20.79
2023-03-21T14:09:06.751Z,20.94
2023-03-21T14:11:36.764Z,21.41
2023-03-21T14:14:05.282Z,21.23
2023-03-21T14:16:34.565Z,21.16
2023-03-21T14:19:05.824Z,20.62
2023-03-21T14:21:35.913Z,20.56
2023-03-21T14:24:06.838Z,20.43
2023-03-21T14:26:38.753Z,20.27
2023-03-21T14:29:22.979Z,20.28
2023-03-21T14:31:52.804Z,20.19
2023-03-21T14:34:23.756Z,20.14
2023-03-21T14:36:58.097Z,19.89
2023-03-21T14:39:30.717Z,18.94
2023-03-21T14:42:04.078Z,18.42
2023-03-21T14:44:44.067Z,18.03
2023-03-21T14:47:20.437Z,17.87
2023-03-21T14:49:50.285Z,17.53
2023-03-21T14:52:23.314Z,17.46
2023-03-21T14:54:51.964Z,17.36
2023-03-21T14:57:22.302Z,17.62
2023-03-21T14:59:53.003Z,17.43
2023-03-21T15:02:24.993Z,17.41
2023-03-21T15:04:58.027Z,17.28
2023-03-21T15:07:28.434Z,17.26
2023-03-21T15:09:57.520Z,17.25
2023-03-21T15:12:25.414Z,17.13
2023-03-21T15:14:54.345Z,17.21
2023-03-21T15:17:22.922Z,17.21
2023-03-21T15:19:50.549Z,17.22
2023-03-21T15:22:26.077Z,17.29
2023-03-21T15:24:59.365Z,17.11
2023-03-21T15:27:26.796Z,17.06
2023-03-21T15:29:55.457Z,16.79
2023-03-21T15:32:27.164Z,16.80
2023-03-21T15:34:56.905Z,16.78
2023-03-21T15:37:28.501Z,16.73
2023-03-21T15:40:11.327Z,16.60
2023-03-21T15:42:40.679Z,16.65
2023-03-21T15:45:18.192Z,16.59
2023-03-21T15:47:53.551Z,16.56
2023-03-21T15:50:33.590Z,16.52
2023-03-21T15:53:05.918Z,16.57
2023-03-21T15:55:40.135Z,16.46
2023-03-21T15:58:16.391Z,16.22
2023-03-21T16:00:49.862Z,16.23
2023-03-21T16:03:22.198Z,16.23
2023-03-21T16:06:06.608Z,16.25
2023-03-21T16:08:37.718Z,16.23
2023-03-21T16:11:14.323Z,16.26
2023-03-21T16:13:41.960Z,16.26
2023-03-21T16:16:16.774Z,16.23
2023-03-21T16:18:44.448Z,16.31
2023-03-21T16:21:13.420Z,16.30
2023-03-21T16:23:42.746Z,16.31
2023-03-21T16:26:13.170Z,16.23
2023-03-21T16:28:40.820Z,16.18
2023-03-21T16:31:12.846Z,16.14
2023-03-21T16:33:40.408Z,16.03
2023-03-21T16:36:13.351Z,16.06
2023-03-21T16:38:42.305Z,16.01
2023-03-21T16:41:11.868Z,16.02
2023-03-21T16:43:42.992Z,15.96
2023-03-21T16:46:14.849Z,15.93
2023-03-21T16:48:42.920Z,15.94
2023-03-21T16:51:14.447Z,15.95
2023-03-21T16:53:43.776Z,15.94
2023-03-21T16:56:16.155Z,15.95
2023-03-21T16:58:43.735Z,15.94
2023-03-21T17:01:15.434Z,15.88
2023-03-21T17:03:43.739Z,15.89
2023-03-21T17:06:16.027Z,15.90
2023-03-21T17:08:45.726Z,15.85
2023-03-21T17:11:16.350Z,15.84
2023-03-21T17:13:44.550Z,15.80
2023-03-21T17:16:13.204Z,15.76
2023-03-21T17:18:41.024Z,15.69
2023-03-21T17:21:13.744Z,15.58
2023-03-21T17:23:41.704Z,15.51
2023-03-21T17:26:13.668Z,15.51
2023-03-21T17:28:42.089Z,15.47
2023-03-21T17:31:14.502Z,15.45
2023-03-21T17:33:42.480Z,15.46
2023-03-21T17:36:14.733Z,15.43
2023-03-21T17:38:43.086Z,15.39
2023-03-21T17:41:14.078Z,15.34
2023-03-21T17:43:41.657Z,15.33
2023-03-21T17:46:12.797Z,15.30
2023-03-21T17:48:40.654Z,15.25
2023-03-21T17:51:12.793Z,15.14
2023-03-21T17:53:40.632Z,15.03
2023-03-21T17:56:14.799Z,14.98
2023-03-21T17:58:42.506Z,14.90
2023-03-21T18:01:10.397Z,14.84
2023-03-21T18:03:37.983Z,14.79
2023-03-21T18:06:06.518Z,14.76
2023-03-21T18:08:34.140Z,14.75
2023-03-21T18:11:01.739Z,14.73
2023-03-21T18:13:30.680Z,14.67
2023-03-21T18:15:59.792Z,14.60
2023-03-21T18:18:28.031Z,14.59
2023-03-21T18:20:58.002Z,14.57
2023-03-21T18:23:26.380Z,14.51
2023-03-21T18:25:53.965Z,14.44
2023-03-21T18:28:22.467Z,14.35
2023-03-21T18:31:12.590Z,14.31
2023-03-21T18:33:41.173Z,14.22
2023-03-21T18:36:10.005Z,14.20
2023-03-21T18:38:37.688Z,14.13
2023-03-21T18:41:05.844Z,14.10
2023-03-21T18:46:22.685Z,14.07
2023-03-21T18:48:51.799Z,14.03
2023-03-21T18:51:19.696Z,13.99
2023-03-21T18:53:47.446Z,13.93
2023-03-21T18:56:56.164Z,13.87
2023-03-21T18:59:02.626Z,13.79
2023-03-21T19:01:32.368Z,13.81
2023-03-21T19:06:48.532Z,13.73
2023-03-21T19:09:18.112Z,13.63
2023-03-21T19:11:46.476Z,13.54
2023-03-21T19:14:16.899Z,13.49
2023-03-21T19:17:27.038Z,13.45
2023-03-21T19:19:34.256Z,13.39
2023-03-21T19:22:01.847Z,13.36
2023-03-21T19:24:29.457Z,13.35
2023-03-21T19:26:57.082Z,13.28
2023-03-21T19:29:25.759Z,13.25
2023-03-21T19:31:54.865Z,13.20
2023-03-21T19:34:22.652Z,13.17
2023-03-21T19:36:52.217Z,13.10
2023-03-21T19:39:22.317Z,13.09
2023-03-21T19:41:50.587Z,13.05
2023-03-21T19:44:19.080Z,13.01
2023-03-21T19:46:48.318Z,12.97
2023-03-21T19:49:22.276Z,12.91
2023-03-21T19:51:51.156Z,12.87
2023-03-21T19:54:18.843Z,12.82
2023-03-21T19:56:48.133Z,12.84
2023-03-21T19:59:16.136Z,12.77
2023-03-21T20:01:43.853Z,12.73
2023-03-21T20:04:11.816Z,12.69
2023-03-21T20:06:40.817Z,12.71
2023-03-21T20:11:57.723Z,12.73
2023-03-21T20:14:25.748Z,12.70
2023-03-21T20:16:55.365Z,12.66
2023-03-21T20:19:23.082Z,12.57
2023-03-21T20:21:58.756Z,12.61
2023-03-21T20:24:28.127Z,12.69
2023-03-21T20:26:57.236Z,12.68
2023-03-21T20:32:13.097Z,12.51
2023-03-21T20:34:40.726Z,12.42
2023-03-21T20:37:09.816Z,12.34
2023-03-21T20:39:37.965Z,12.28
2023-03-21T20:42:06.079Z,12.19
2023-03-21T20:44:56.019Z,12.13
2023-03-21T20:47:21.795Z,12.12
2023-03-21T20:49:49.631Z,12.07
2023-03-21T20:55:08.916Z,11.86
2023-03-21T20:57:38.747Z,11.74
2023-03-21T21:00:14.802Z,11.62
2023-03-21T21:02:43.896Z,11.51
2023-03-21T21:05:25.358Z,11.46
2023-03-21T21:07:57.586Z,11.35
2023-03-21T21:10:26.211Z,11.30
2023-03-21T21:12:54.054Z,11.26
2023-03-21T21:15:22.007Z,11.20
2023-03-21T21:18:05.525Z,11.18
2023-03-21T21:20:34.076Z,11.14
2023-03-21T21:23:03.054Z,11.11
2023-03-21T21:25:33.412Z,10.98
2023-03-21T21:28:02.241Z,10.90
2023-03-21T21:30:30.309Z,10.82
2023-03-21T21:33:01.807Z,10.76
2023-03-21T21:35:30.512Z,10.68
2023-03-21T21:37:59.026Z,10.64
2023-03-21T21:40:30.087Z,10.55
2023-03-21T21:43:03.226Z,10.44
2023-03-21T21:45:30.963Z,10.31
2023-03-21T21:47:58.663Z,10.24
2023-03-21T21:50:26.272Z,10.15
2023-03-21T21:52:54.533Z,10.08
2023-03-21T21:55:22.849Z,10.00
2023-03-21T21:57:52.805Z,9.95
2023-03-21T22:00:21.776Z,9.87
2023-03-21T22:02:49.395Z,9.80
2023-03-21T22:05:18.821Z,9.76
2023-03-21T22:07:46.868Z,9.72
2023-03-21T22:10:15.447Z,9.70
2023-03-21T22:12:43.010Z,9.65
2023-03-21T22:15:13.039Z,9.61
2023-03-21T22:17:42.058Z,9.58
2023-03-21T22:20:11.998Z,9.54
2023-03-21T22:22:39.821Z,9.48
2023-03-21T22:25:10.440Z,9.47
2023-03-21T22:27:38.435Z,9.44
2023-03-21T22:30:07.772Z,9.40
2023-03-21T22:32:38.198Z,9.33
2023-03-21T22:35:08.863Z,9.27
2023-03-21T22:37:38.459Z,9.20
2023-03-21T22:40:09.774Z,9.15
2023-03-21T22:42:39.505Z,9.05
2023-03-21T22:45:09.470Z,9.03
2023-03-21T22:47:38.828Z,8.96
2023-03-21T22:50:08.370Z,8.91
2023-03-21T22:52:35.969Z,8.88
2023-03-21T22:55:03.587Z,8.85
2023-03-21T22:57:31.201Z,8.80
2023-03-21T22:59:58.787Z,8.74
2023-03-21T23:02:27.095Z,8.65
2023-03-21T23:04:56.300Z,8.62
2023-03-21T23:07:23.869Z,8.56
2023-03-21T23:09:51.778Z,8.53
2023-03-21T23:12:19.448Z,8.49
2023-03-21T23:14:47.199Z,8.46
2023-03-21T23:17:16.274Z,8.41
2023-03-21T23:19:43.951Z,8.41
2023-03-21T23:22:12.866Z,8.36
2023-03-21T23:24:40.469Z,8.32
2023-03-21T23:27:07.988Z,8.23
2023-03-21T23:29:35.603Z,8.19
2023-03-21T23:32:03.222Z,8.14
2023-03-21T23:34:31.588Z,8.13
2023-03-21T23:36:59.312Z,8.06
2023-03-21T23:39:28.265Z,8.05
2023-03-21T23:41:57.936Z,8.00
2023-03-21T23:44:26.306Z,7.94
2023-03-21T23:46:53.931Z,7.91
2023-03-21T23:49:21.419Z,7.88
2023-03-21T23:51:49.995Z,7.88
2023-03-21T23:54:17.668Z,7.89
2023-03-21T23:56:46.689Z,7.88
2023-03-21T23:59:14.256Z,7.85
